sensor_id;sensor_type;location;lat;lon;timestamp;P1;durP1;ratioP1;P2;durP2;ratioP2
17347;SDS011;8791;50.876;4.342;2023-10-13T00:01:07;28.75;;;16.08;;
17347;SDS011;8791;50.876;4.342;2023-10-13T00:03:36;32.58;;;16.02;;
17347;SDS011;8791;50.876;4.342;2023-10-13T00:06:05;25.48;;;15.90;;
17347;SDS011;8791;50.876;4.342;2023-10-13T00:08:33;24.35;;;16.50;;
17347;SDS011;8791;50.876;4.342;2023-10-13T00:11:01;29.17;;;16.52;;
17347;SDS011;8791;50.876;4.342;2023-10-13T00:13:29;33.42;;;17.25;;
17347;SDS011;8791;50.876;4.342;2023-10-13T00:16:07;33.42;;;17.35;;
17347;SDS011;8791;50.876;4.342;2023-10-13T00:18:41;33.65;;;17.73;;
17347;SDS011;8791;50.876;4.342;2023-10-13T00:21:09;29.52;;;17.52;;
17347;SDS011;8791;50.876;4.342;2023-10-13T00:23:41;29.25;;;18.02;;
17347;SDS011;8791;50.876;4.342;2023-10-13T00:26:17;31.30;;;18.30;;
17347;SDS011;8791;50.876;4.342;2023-10-13T00:28:48;29.98;;;18.75;;
17347;SDS011;8791;50.876;4.342;2023-10-13T00:31:25;36.33;;;17.88;;
17347;SDS011;8791;50.876;4.342;2023-10-13T00:33:57;35.67;;;19.05;;
17347;SDS011;8791;50.876;4.342;2023-10-13T00:36:31;31.02;;;18.88;;
17347;SDS011;8791;50.876;4.342;2023-10-13T00:38:59;34.38;;;19.83;;
17347;SDS011;8791;50.876;4.342;2023-10-13T00:41:26;37.72;;;19.23;;
17347;SDS011;8791;50.876;4.342;2023-10-13T00:44:15;35.10;;;18.63;;
17347;SDS011;8791;50.876;4.342;2023-10-13T00:46:43;35.60;;;19.65;;
17347;SDS011;8791;50.876;4.342;2023-10-13T00:49:11;36.22;;;19.38;;
17347;SDS011;8791;50.876;4.342;2023-10-13T00:51:40;33.47;;;19.50;;
17347;SDS011;8791;50.876;4.342;2023-10-13T00:54:12;36.05;;;19.90;;
17347;SDS011;8791;50.876;4.342;2023-10-13T00:56:43;39.42;;;20.67;;
17347;SDS011;8791;50.876;4.342;2023-10-13T00:59:14;41.13;;;20.58;;
17347;SDS011;8791;50.876;4.342;2023-10-13T01:01:44;40.72;;;21.55;;
17347;SDS011;8791;50.876;4.342;2023-10-13T01:04:11;35.47;;;20.58;;
17347;SDS011;8791;50.876;4.342;2023-10-13T01:06:38;42.13;;;21.67;;
17347;SDS011;8791;50.876;4.342;2023-10-13T01:09:06;39.90;;;19.98;;
17347;SDS011;8791;50.876;4.342;2023-10-13T01:11:37;36.63;;;19.77;;
17347;SDS011;8791;50.876;4.342;2023-10-13T01:14:05;35.42;;;20.35;;
17347;SDS011;8791;50.876;4.342;2023-10-13T01:16:33;41.25;;;21.73;;
17347;SDS011;8791;50.876;4.342;2023-10-13T01:19:02;44.80;;;20.95;;
17347;SDS011;8791;50.876;4.342;2023-10-13T01:21:30;35.17;;;19.83;;
17347;SDS011;8791;50.876;4.342;2023-10-13T01:24:00;42.65;;;22.13;;
17347;SDS011;8791;50.876;4.342;2023-10-13T01:26:31;43.80;;;22.05;;
17347;SDS011;8791;50.876;4.342;2023-10-13T01:29:03;39.97;;;20.70;;
17347;SDS011;8791;50.876;4.342;2023-10-13T01:31:37;46.95;;;22.20;;
17347;SDS011;8791;50.876;4.342;2023-10-13T01:34:11;45.67;;;21.05;;
17347;SDS011;8791;50.876;4.342;2023-10-13T01:36:38;46.03;;;22.17;;
17347;SDS011;8791;50.876;4.342;2023-10-13T01:39:07;46.08;;;22.70;;
17347;SDS011;8791;50.876;4.342;2023-10-13T01:41:33;39.80;;;21.63;;
17347;SDS011;8791;50.876;4.342;2023-10-13T01:44:02;46.53;;;23.35;;
17347;SDS011;8791;50.876;4.342;2023-10-13T01:46:30;49.63;;;21.85;;
17347;SDS011;8791;50.876;4.342;2023-10-13T01:48:57;43.70;;;22.02;;
17347;SDS011;8791;50.876;4.342;2023-10-13T01:51:23;42.42;;;20.85;;
17347;SDS011;8791;50.876;4.342;2023-10-13T01:53:52;47.08;;;20.80;;
17347;SDS011;8791;50.876;4.342;2023-10-13T01:56:22;47.83;;;23.13;;
17347;SDS011;8791;50.876;4.342;2023-10-13T01:58:50;38.78;;;20.35;;
17347;SDS011;8791;50.876;4.342;2023-10-13T02:01:18;40.22;;;19.95;;
17347;SDS011;8791;50.876;4.342;2023-10-13T02:03:52;33.15;;;19.42;;
17347;SDS011;8791;50.876;4.342;2023-10-13T02:06:27;42.45;;;20.10;;
17347;SDS011;8791;50.876;4.342;2023-10-13T02:08:59;34.85;;;18.48;;
17347;SDS011;8791;50.876;4.342;2023-10-13T02:11:36;37.20;;;19.70;;
17347;SDS011;8791;50.876;4.342;2023-10-13T02:14:04;31.85;;;18.27;;
17347;SDS011;8791;50.876;4.342;2023-10-13T02:16:30;32.97;;;17.05;;
17347;SDS011;8791;50.876;4.342;2023-10-13T02:18:57;25.58;;;16.33;;
17347;SDS011;8791;50.876;4.342;2023-10-13T02:21:29;27.15;;;15.65;;
17347;SDS011;8791;50.876;4.342;2023-10-13T02:23:57;30.13;;;16.42;;
17347;SDS011;8791;50.876;4.342;2023-10-13T02:26:29;23.52;;;15.77;;
17347;SDS011;8791;50.876;4.342;2023-10-13T02:28:59;34.45;;;16.40;;
17347;SDS011;8791;50.876;4.342;2023-10-13T02:31:28;25.55;;;15.65;;
17347;SDS011;8791;50.876;4.342;2023-10-13T02:33:55;31.42;;;15.52;;
17347;SDS011;8791;50.876;4.342;2023-10-13T02:36:21;24.85;;;14.73;;
17347;SDS011;8791;50.876;4.342;2023-10-13T02:39:01;24.90;;;14.38;;
17347;SDS011;8791;50.876;4.342;2023-10-13T02:41:32;29.92;;;14.15;;
17347;SDS011;8791;50.876;4.342;2023-10-13T02:44:04;25.40;;;14.52;;
17347;SDS011;8791;50.876;4.342;2023-10-13T02:46:31;27.33;;;13.35;;
17347;SDS011;8791;50.876;4.342;2023-10-13T02:49:01;27.25;;;14.27;;
17347;SDS011;8791;50.876;4.342;2023-10-13T02:51:34;23.58;;;13.48;;
17347;SDS011;8791;50.876;4.342;2023-10-13T02:54:01;25.27;;;12.95;;
17347;SDS011;8791;50.876;4.342;2023-10-13T02:56:28;31.80;;;13.02;;
17347;SDS011;8791;50.876;4.342;2023-10-13T02:58:55;32.55;;;13.52;;
17347;SDS011;8791;50.876;4.342;2023-10-13T03:01:22;24.27;;;13.60;;
17347;SDS011;8791;50.876;4.342;2023-10-13T03:03:53;21.98;;;13.30;;
17347;SDS011;8791;50.876;4.342;2023-10-13T03:06:21;29.50;;;13.27;;
17347;SDS011;8791;50.876;4.342;2023-10-13T03:08:57;23.65;;;13.30;;
17347;SDS011;8791;50.876;4.342;2023-10-13T03:11:26;29.42;;;14.70;;
17347;SDS011;8791;50.876;4.342;2023-10-13T03:13:58;25.02;;;13.90;;
17347;SDS011;8791;50.876;4.342;2023-10-13T03:16:26;21.80;;;12.77;;
17347;SDS011;8791;50.876;4.342;2023-10-13T03:18:55;28.38;;;12.43;;
17347;SDS011;8791;50.876;4.342;2023-10-13T03:21:21;22.23;;;12.32;;
17347;SDS011;8791;50.876;4.342;2023-10-13T03:23:56;25.67;;;13.20;;
17347;SDS011;8791;50.876;4.342;2023-10-13T03:26:32;22.33;;;12.77;;
17347;SDS011;8791;50.876;4.342;2023-10-13T03:29:03;25.50;;;11.57;;
17347;SDS011;8791;50.876;4.342;2023-10-13T03:31:39;26.88;;;12.80;;
17347;SDS011;8791;50.876;4.342;2023-10-13T03:34:10;27.63;;;12.55;;
17347;SDS011;8791;50.876;4.342;2023-10-13T03:36:37;31.55;;;12.23;;
17347;SDS011;8791;50.876;4.342;2023-10-13T03:39:22;20.08;;;11.75;;
17347;SDS011;8791;50.876;4.342;2023-10-13T03:41:54;23.70;;;12.90;;
17347;SDS011;8791;50.876;4.342;2023-10-13T03:44:24;25.67;;;12.75;;
17347;SDS011;8791;50.876;4.342;2023-10-13T03:46:58;24.40;;;11.88;;
17347;SDS011;8791;50.876;4.342;2023-10-13T03:49:43;28.98;;;12.82;;
17347;SDS011;8791;50.876;4.342;2023-10-13T03:52:10;19.92;;;12.20;;
17347;SDS011;8791;50.876;4.342;2023-10-13T03:54:38;20.10;;;12.52;;
17347;SDS011;8791;50.876;4.342;2023-10-13T03:57:06;28.73;;;11.75;;
17347;SDS011;8791;50.876;4.342;2023-10-13T03:59:39;28.08;;;12.65;;
17347;SDS011;8791;50.876;4.342;2023-10-13T04:02:13;26.77;;;12.07;;
17347;SDS011;8791;50.876;4.342;2023-10-13T04:04:43;29.02;;;12.40;;
17347;SDS011;8791;50.876;4.342;2023-10-13T04:07:14;23.00;;;12.05;;
17347;SDS011;8791;50.876;4.342;2023-10-13T04:09:59;28.35;;;12.38;;
17347;SDS011;8791;50.876;4.342;2023-10-13T04:12:49;19.48;;;11.00;;
17347;SDS011;8791;50.876;4.342;2023-10-13T04:15:33;24.10;;;12.10;;
17347;SDS011;8791;50.876;4.342;2023-10-13T04:18:08;22.88;;;11.40;;
17347;SDS011;8791;50.876;4.342;2023-10-13T04:20:58;30.25;;;10.85;;
17347;SDS011;8791;50.876;4.342;2023-10-13T04:23:43;27.70;;;11.05;;
17347;SDS011;8791;50.876;4.342;2023-10-13T04:26:24;20.80;;;10.75;;
17347;SDS011;8791;50.876;4.342;2023-10-13T04:29:01;27.20;;;10.95;;
17347;SDS011;8791;50.876;4.342;2023-10-13T04:31:35;28.67;;;10.43;;
17347;SDS011;8791;50.876;4.342;2023-10-13T04:34:26;22.48;;;10.02;;
17347;SDS011;8791;50.876;4.342;2023-10-13T04:36:54;22.67;;;9.93;;
17347;SDS011;8791;50.876;4.342;2023-10-13T04:39:42;32.25;;;10.45;;
17347;SDS011;8791;50.876;4.342;2023-10-13T04:42:08;17.75;;;9.70;;
17347;SDS011;8791;50.876;4.342;2023-10-13T04:44:52;26.67;;;9.88;;
17347;SDS011;8791;50.876;4.342;2023-10-13T04:47:25;27.35;;;10.05;;
17347;SDS011;8791;50.876;4.342;2023-10-13T04:49:55;18.73;;;9.45;;
17347;SDS011;8791;50.876;4.342;2023-10-13T04:52:25;25.23;;;9.70;;
17347;SDS011;8791;50.876;4.342;2023-10-13T04:55:16;24.95;;;8.85;;
17347;SDS011;8791;50.876;4.342;2023-10-13T04:57:57;20.25;;;9.52;;
17347;SDS011;8791;50.876;4.342;2023-10-13T05:00:35;22.13;;;8.98;;
17347;SDS011;8791;50.876;4.342;2023-10-13T05:03:21;24.33;;;10.10;;
17347;SDS011;8791;50.876;4.342;2023-10-13T05:06:19;27.55;;;9.82;;
17347;SDS011;8791;50.876;4.342;2023-10-13T05:09:03;21.85;;;10.57;;
17347;SDS011;8791;50.876;4.342;2023-10-13T05:11:48;25.63;;;10.55;;
17347;SDS011;8791;50.876;4.342;2023-10-13T05:14:33;26.00;;;10.02;;
17347;SDS011;8791;50.876;4.342;2023-10-13T05:17:18;29.90;;;10.38;;
17347;SDS011;8791;50.876;4.342;2023-10-13T05:20:03;27.08;;;9.98;;
17347;SDS011;8791;50.876;4.342;2023-10-13T05:22:49;25.23;;;9.98;;
17347;SDS011;8791;50.876;4.342;2023-10-13T05:25:34;31.02;;;8.77;;
17347;SDS011;8791;50.876;4.342;2023-10-13T05:28:19;22.85;;;8.98;;
17347;SDS011;8791;50.876;4.342;2023-10-13T05:31:03;29.65;;;9.20;;
17347;SDS011;8791;50.876;4.342;2023-10-13T05:33:48;24.63;;;8.25;;
17347;SDS011;8791;50.876;4.342;2023-10-13T05:36:32;21.77;;;7.72;;
17347;SDS011;8791;50.876;4.342;2023-10-13T05:39:18;19.05;;;8.50;;
17347;SDS011;8791;50.876;4.342;2023-10-13T05:42:03;30.02;;;8.18;;
17347;SDS011;8791;50.876;4.342;2023-10-13T05:45:02;23.90;;;7.55;;
17347;SDS011;8791;50.876;4.342;2023-10-13T05:48:02;21.95;;;6.90;;
17347;SDS011;8791;50.876;4.342;2023-10-13T05:50:36;24.67;;;7.57;;
17347;SDS011;8791;50.876;4.342;2023-10-13T05:53:36;17.33;;;7.32;;
17347;SDS011;8791;50.876;4.342;2023-10-13T05:56:21;19.30;;;7.65;;
17347;SDS011;8791;50.876;4.342;2023-10-13T05:59:14;21.35;;;7.63;;
17347;SDS011;8791;50.876;4.342;2023-10-13T06:01:58;27.58;;;7.50;;
17347;SDS011;8791;50.876;4.342;2023-10-13T06:04:55;21.20;;;8.15;;
17347;SDS011;8791;50.876;4.342;2023-10-13T06:07:40;21.83;;;6.40;;
17347;SDS011;8791;50.876;4.342;2023-10-13T06:10:24;17.13;;;7.03;;
17347;SDS011;8791;50.876;4.342;2023-10-13T06:13:10;24.63;;;7.07;;
17347;SDS011;8791;50.876;4.342;2023-10-13T06:15:55;14.63;;;7.05;;
17347;SDS011;8791;50.876;4.342;2023-10-13T06:18:39;25.02;;;6.88;;
17347;SDS011;8791;50.876;4.342;2023-10-13T06:21:23;20.45;;;6.47;;
17347;SDS011;8791;50.876;4.342;2023-10-13T06:24:08;23.17;;;6.88;;
17347;SDS011;8791;50.876;4.342;2023-10-13T06:26:52;22.13;;;6.65;;
17347;SDS011;8791;50.876;4.342;2023-10-13T06:29:38;28.38;;;6.57;;
17347;SDS011;8791;50.876;4.342;2023-10-13T06:32:05;19.73;;;6.32;;
17347;SDS011;8791;50.876;4.342;2023-10-13T06:34:36;18.80;;;6.32;;
17347;SDS011;8791;50.876;4.342;2023-10-13T06:37:09;21.15;;;6.80;;
17347;SDS011;8791;50.876;4.342;2023-10-13T06:39:48;22.27;;;6.57;;
17347;SDS011;8791;50.876;4.342;2023-10-13T06:42:15;21.73;;;6.28;;
17347;SDS011;8791;50.876;4.342;2023-10-13T06:44:45;17.10;;;5.93;;
17347;SDS011;8791;50.876;4.342;2023-10-13T06:47:12;21.92;;;6.40;;
17347;SDS011;8791;50.876;4.342;2023-10-13T06:49:40;20.83;;;5.93;;
17347;SDS011;8791;50.876;4.342;2023-10-13T06:52:08;25.80;;;6.78;;
17347;SDS011;8791;50.876;4.342;2023-10-13T06:54:35;21.55;;;6.30;;
17347;SDS011;8791;50.876;4.342;2023-10-13T06:57:04;18.13;;;6.43;;
17347;SDS011;8791;50.876;4.342;2023-10-13T06:59:39;14.35;;;5.70;;
17347;SDS011;8791;50.876;4.342;2023-10-13T07:02:08;20.75;;;6.25;;
17347;SDS011;8791;50.876;4.342;2023-10-13T07:04:45;18.35;;;6.78;;
17347;SDS011;8791;50.876;4.342;2023-10-13T07:07:12;20.25;;;6.35;;
17347;SDS011;8791;50.876;4.342;2023-10-13T07:09:40;23.20;;;6.80;;
17347;SDS011;8791;50.876;4.342;2023-10-13T07:12:14;19.35;;;6.10;;
17347;SDS011;8791;50.876;4.342;2023-10-13T07:14:48;26.33;;;6.45;;
17347;SDS011;8791;50.876;4.342;2023-10-13T07:17:19;17.25;;;6.07;;
17347;SDS011;8791;50.876;4.342;2023-10-13T07:19:50;23.52;;;6.38;;
17347;SDS011;8791;50.876;4.342;2023-10-13T07:22:21;23.33;;;6.45;;
17347;SDS011;8791;50.876;4.342;2023-10-13T07:24:51;14.95;;;6.22;;
17347;SDS011;8791;50.876;4.342;2023-10-13T07:27:18;14.18;;;6.28;;
17347;SDS011;8791;50.876;4.342;2023-10-13T07:29:49;13.43;;;5.28;;
17347;SDS011;8791;50.876;4.342;2023-10-13T07:32:24;15.15;;;6.45;;
17347;SDS011;8791;50.876;4.342;2023-10-13T07:34:54;30.88;;;7.03;;
17347;SDS011;8791;50.876;4.342;2023-10-13T07:37:22;15.13;;;5.75;;
17347;SDS011;8791;50.876;4.342;2023-10-13T07:39:54;14.52;;;6.18;;
17347;SDS011;8791;50.876;4.342;2023-10-13T07:42:24;15.32;;;6.68;;
17347;SDS011;8791;50.876;4.342;2023-10-13T07:44:57;18.48;;;5.72;;
17347;SDS011;8791;50.876;4.342;2023-10-13T07:47:25;20.00;;;5.53;;
17347;SDS011;8791;50.876;4.342;2023-10-13T07:49:53;24.30;;;6.10;;
17347;SDS011;8791;50.876;4.342;2023-10-13T07:52:22;14.75;;;6.60;;
17347;SDS011;8791;50.876;4.342;2023-10-13T07:55:01;23.20;;;5.80;;
17347;SDS011;8791;50.876;4.342;2023-10-13T07:57:36;20.48;;;6.72;;
17347;SDS011;8791;50.876;4.342;2023-10-13T08:00:18;24.25;;;5.60;;
17347;SDS011;8791;50.876;4.342;2023-10-13T08:02:59;18.08;;;5.97;;
17347;SDS011;8791;50.876;4.342;2023-10-13T08:05:45;14.73;;;6.10;;
17347;SDS011;8791;50.876;4.342;2023-10-13T08:08:23;15.90;;;5.32;;
17347;SDS011;8791;50.876;4.342;2023-10-13T08:11:00;18.70;;;6.35;;
17347;SDS011;8791;50.876;4.342;2023-10-13T08:13:33;16.67;;;5.53;;
17347;SDS011;8791;50.876;4.342;2023-10-13T08:16:02;17.23;;;6.22;;
17347;SDS011;8791;50.876;4.342;2023-10-13T08:18:35;19.02;;;5.70;;
17347;SDS011;8791;50.876;4.342;2023-10-13T08:21:06;14.48;;;6.20;;
17347;SDS011;8791;50.876;4.342;2023-10-13T08:23:41;20.98;;;6.15;;
17347;SDS011;8791;50.876;4.342;2023-10-13T08:26:28;16.92;;;6.18;;
17347;SDS011;8791;50.876;4.342;2023-10-13T08:29:22;19.77;;;5.15;;
17347;SDS011;8791;50.876;4.342;2023-10-13T08:32:20;12.90;;;6.05;;
17347;SDS011;8791;50.876;4.342;2023-10-13T08:35:03;15.32;;;5.47;;
17347;SDS011;8791;50.876;4.342;2023-10-13T08:37:47;18.40;;;5.43;;
17347;SDS011;8791;50.876;4.342;2023-10-13T08:40:26;8.85;;;4.82;;
17347;SDS011;8791;50.876;4.342;2023-10-13T08:43:29;16.80;;;6.10;;
17347;SDS011;8791;50.876;4.342;2023-10-13T08:46:08;18.75;;;6.40;;
17347;SDS011;8791;50.876;4.342;2023-10-13T08:48:49;24.00;;;6.25;;
17347;SDS011;8791;50.876;4.342;2023-10-13T08:51:19;18.20;;;6.57;;
17347;SDS011;8791;50.876;4.342;2023-10-13T08:54:00;17.23;;;7.07;;
17347;SDS011;8791;50.876;4.342;2023-10-13T08:56:34;20.23;;;5.72;;
17347;SDS011;8791;50.876;4.342;2023-10-13T08:59:12;28.48;;;6.35;;
17347;SDS011;8791;50.876;4.342;2023-10-13T09:01:47;21.30;;;5.97;;
17347;SDS011;8791;50.876;4.342;2023-10-13T09:04:13;16.70;;;5.85;;
17347;SDS011;8791;50.876;4.342;2023-10-13T09:06:49;16.17;;;6.10;;
17347;SDS011;8791;50.876;4.342;2023-10-13T09:09:33;17.38;;;6.68;;
17347;SDS011;8791;50.876;4.342;2023-10-13T09:12:25;24.67;;;6.13;;
17347;SDS011;8791;50.876;4.342;2023-10-13T09:15:01;15.25;;;7.03;;
17347;SDS011;8791;50.876;4.342;2023-10-13T09:17:32;16.33;;;6.45;;
17347;SDS011;8791;50.876;4.342;2023-10-13T09:20:07;15.13;;;6.10;;
17347;SDS011;8791;50.876;4.342;2023-10-13T09:22:59;17.73;;;6.32;;
17347;SDS011;8791;50.876;4.342;2023-10-13T09:25:34;17.13;;;6.97;;
17347;SDS011;8791;50.876;4.342;2023-10-13T09:28:02;21.05;;;7.05;;
17347;SDS011;8791;50.876;4.342;2023-10-13T09:30:43;20.38;;;6.57;;
17347;SDS011;8791;50.876;4.342;2023-10-13T09:33:10;22.20;;;7.32;;
17347;SDS011;8791;50.876;4.342;2023-10-13T09:35:41;16.73;;;6.32;;
17347;SDS011;8791;50.876;4.342;2023-10-13T09:38:15;16.75;;;6.53;;
17347;SDS011;8791;50.876;4.342;2023-10-13T09:40:43;21.85;;;6.30;;
17347;SDS011;8791;50.876;4.342;2023-10-13T09:43:16;26.33;;;8.05;;
17347;SDS011;8791;50.876;4.342;2023-10-13T09:45:45;21.83;;;7.20;;
17347;SDS011;8791;50.876;4.342;2023-10-13T09:48:32;20.33;;;6.85;;
17347;SDS011;8791;50.876;4.342;2023-10-13T09:50:59;15.20;;;7.05;;
17347;SDS011;8791;50.876;4.342;2023-10-13T09:53:29;16.90;;;6.68;;
17347;SDS011;8791;50.876;4.342;2023-10-13T09:55:58;14.18;;;7.18;;
17347;SDS011;8791;50.876;4.342;2023-10-13T09:58:41;22.50;;;6.90;;
17347;SDS011;8791;50.876;4.342;2023-10-13T10:01:14;17.13;;;6.50;;
17347;SDS011;8791;50.876;4.342;2023-10-13T10:04:05;20.23;;;6.32;;
17347;SDS011;8791;50.876;4.342;2023-10-13T10:06:33;18.50;;;6.57;;
17347;SDS011;8791;50.876;4.342;2023-10-13T10:09:10;22.85;;;6.68;;
17347;SDS011;8791;50.876;4.342;2023-10-13T10:17:26;26.17;;;6.32;;
17347;SDS011;8791;50.876;4.342;2023-10-13T10:19:55;27.73;;;6.90;;
17347;SDS011;8791;50.876;4.342;2023-10-13T10:22:26;20.08;;;7.43;;
17347;SDS011;8791;50.876;4.342;2023-10-13T10:24:57;16.75;;;6.15;;
17347;SDS011;8791;50.876;4.342;2023-10-13T10:27:25;24.02;;;6.22;;
17347;SDS011;8791;50.876;4.342;2023-10-13T10:29:54;36.00;;;7.20;;
17347;SDS011;8791;50.876;4.342;2023-10-13T10:32:21;18.42;;;6.05;;
17347;SDS011;8791;50.876;4.342;2023-10-13T10:35:02;24.40;;;7.65;;
17347;SDS011;8791;50.876;4.342;2023-10-13T10:37:39;20.83;;;6.70;;
17347;SDS011;8791;50.876;4.342;2023-10-13T10:40:13;29.30;;;6.50;;
17347;SDS011;8791;50.876;4.342;2023-10-13T10:43:03;23.77;;;6.40;;
17347;SDS011;8791;50.876;4.342;2023-10-13T10:45:33;28.70;;;6.28;;
17347;SDS011;8791;50.876;4.342;2023-10-13T10:48:11;30.08;;;7.60;;
17347;SDS011;8791;50.876;4.342;2023-10-13T10:50:43;18.60;;;6.53;;
17347;SDS011;8791;50.876;4.342;2023-10-13T10:53:18;21.05;;;7.25;;
17347;SDS011;8791;50.876;4.342;2023-10-13T10:55:48;20.15;;;6.57;;
17347;SDS011;8791;50.876;4.342;2023-10-13T10:58:15;31.77;;;7.25;;
17347;SDS011;8791;50.876;4.342;2023-10-13T11:01:04;25.00;;;7.72;;
17347;SDS011;8791;50.876;4.342;2023-10-13T11:03:35;29.45;;;7.75;;
17347;SDS011;8791;50.876;4.342;2023-10-13T11:06:07;20.55;;;7.15;;
17347;SDS011;8791;50.876;4.342;2023-10-13T11:08:42;17.38;;;6.22;;
17347;SDS011;8791;50.876;4.342;2023-10-13T11:11:17;33.20;;;7.18;;
17347;SDS011;8791;50.876;4.342;2023-10-13T11:13:55;29.80;;;6.63;;
17347;SDS011;8791;50.876;4.342;2023-10-13T11:16:44;17.95;;;5.88;;
17347;SDS011;8791;50.876;4.342;2023-10-13T11:19:15;22.77;;;6.75;;
17347;SDS011;8791;50.876;4.342;2023-10-13T11:21:46;16.90;;;6.82;;
17347;SDS011;8791;50.876;4.342;2023-10-13T11:24:13;13.15;;;6.47;;
17347;SDS011;8791;50.876;4.342;2023-10-13T11:26:44;23.42;;;6.88;;
17347;SDS011;8791;50.876;4.342;2023-10-13T11:29:15;19.38;;;6.88;;
17347;SDS011;8791;50.876;4.342;2023-10-13T11:31:46;25.67;;;6.45;;
17347;SDS011;8791;50.876;4.342;2023-10-13T11:34:19;21.13;;;6.88;;
17347;SDS011;8791;50.876;4.342;2023-10-13T11:36:50;24.45;;;6.25;;
17347;SDS011;8791;50.876;4.342;2023-10-13T11:39:17;18.48;;;6.60;;
17347;SDS011;8791;50.876;4.342;2023-10-13T11:41:51;22.17;;;6.65;;
17347;SDS011;8791;50.876;4.342;2023-10-13T11:44:20;19.98;;;6.30;;
17347;SDS011;8791;50.876;4.342;2023-10-13T11:46:50;23.60;;;6.57;;
17347;SDS011;8791;50.876;4.342;2023-10-13T11:49:33;28.75;;;6.88;;
17347;SDS011;8791;50.876;4.342;2023-10-13T11:52:06;24.88;;;6.85;;
17347;SDS011;8791;50.876;4.342;2023-10-13T11:54:50;21.13;;;6.13;;
17347;SDS011;8791;50.876;4.342;2023-10-13T11:57:21;24.90;;;6.20;;
17347;SDS011;8791;50.876;4.342;2023-10-13T11:59:48;24.38;;;6.65;;
17347;SDS011;8791;50.876;4.342;2023-10-13T12:02:44;22.08;;;6.82;;
17347;SDS011;8791;50.876;4.342;2023-10-13T12:05:28;24.55;;;7.38;;
17347;SDS011;8791;50.876;4.342;2023-10-13T12:08:14;30.38;;;6.50;;
17347;SDS011;8791;50.876;4.342;2023-10-13T12:10:48;22.10;;;6.53;;
17347;SDS011;8791;50.876;4.342;2023-10-13T12:13:26;25.02;;;5.97;;
17347;SDS011;8791;50.876;4.342;2023-10-13T12:15:53;25.63;;;5.90;;
17347;SDS011;8791;50.876;4.342;2023-10-13T12:18:22;25.17;;;6.05;;
17347;SDS011;8791;50.876;4.342;2023-10-13T12:20:52;16.67;;;5.65;;
17347;SDS011;8791;50.876;4.342;2023-10-13T12:23:19;15.25;;;5.68;;
17347;SDS011;8791;50.876;4.342;2023-10-13T12:25:56;20.20;;;6.53;;
17347;SDS011;8791;50.876;4.342;2023-10-13T12:28:32;23.45;;;6.25;;
17347;SDS011;8791;50.876;4.342;2023-10-13T12:31:05;19.45;;;6.07;;
17347;SDS011;8791;50.876;4.342;2023-10-13T12:33:36;15.02;;;6.43;;
17347;SDS011;8791;50.876;4.342;2023-10-13T12:36:05;15.30;;;6.07;;
17347;SDS011;8791;50.876;4.342;2023-10-13T12:38:34;25.23;;;6.00;;
17347;SDS011;8791;50.876;4.342;2023-10-13T12:41:37;19.90;;;6.32;;
17347;SDS011;8791;50.876;4.342;2023-10-13T12:44:31;19.15;;;6.00;;
17347;SDS011;8791;50.876;4.342;2023-10-13T12:47:16;20.80;;;6.05;;
17347;SDS011;8791;50.876;4.342;2023-10-13T12:50:00;21.20;;;5.57;;
17347;SDS011;8791;50.876;4.342;2023-10-13T12:52:39;18.05;;;6.13;;
17347;SDS011;8791;50.876;4.342;2023-10-13T12:55:10;15.80;;;6.78;;
17347;SDS011;8791;50.876;4.342;2023-10-13T12:57:39;21.13;;;6.45;;
17347;SDS011;8791;50.876;4.342;2023-10-13T13:00:19;18.50;;;5.90;;
17347;SDS011;8791;50.876;4.342;2023-10-13T13:02:48;25.45;;;6.78;;
17347;SDS011;8791;50.876;4.342;2023-10-13T13:05:18;17.20;;;6.18;;
17347;SDS011;8791;50.876;4.342;2023-10-13T13:07:48;19.88;;;5.63;;
17347;SDS011;8791;50.876;4.342;2023-10-13T13:10:19;13.50;;;5.22;;
17347;SDS011;8791;50.876;4.342;2023-10-13T13:12:54;15.43;;;5.28;;
17347;SDS011;8791;50.876;4.342;2023-10-13T13:15:22;15.50;;;5.70;;
17347;SDS011;8791;50.876;4.342;2023-10-13T13:17:49;9.18;;;5.10;;
17347;SDS011;8791;50.876;4.342;2023-10-13T13:20:16;26.52;;;5.95;;
17347;SDS011;8791;50.876;4.342;2023-10-13T13:22:53;23.02;;;5.97;;
17347;SDS011;8791;50.876;4.342;2023-10-13T13:25:20;13.38;;;5.13;;
17347;SDS011;8791;50.876;4.342;2023-10-13T13:27:51;13.52;;;6.70;;
17347;SDS011;8791;50.876;4.342;2023-10-13T13:30:18;11.48;;;5.68;;
17347;SDS011;8791;50.876;4.342;2023-10-13T13:32:48;12.18;;;6.10;;
17347;SDS011;8791;50.876;4.342;2023-10-13T13:35:16;22.75;;;6.13;;
17347;SDS011;8791;50.876;4.342;2023-10-13T13:37:43;15.30;;;5.78;;
17347;SDS011;8791;50.876;4.342;2023-10-13T13:40:11;21.55;;;5.55;;
17347;SDS011;8791;50.876;4.342;2023-10-13T13:42:41;16.77;;;6.35;;
17347;SDS011;8791;50.876;4.342;2023-10-13T13:45:12;17.27;;;6.55;;
17347;SDS011;8791;50.876;4.342;2023-10-13T13:47:46;14.00;;;5.93;;
17347;SDS011;8791;50.876;4.342;2023-10-13T13:50:19;14.40;;;5.25;;
17347;SDS011;8791;50.876;4.342;2023-10-13T13:52:52;11.95;;;5.60;;
17347;SDS011;8791;50.876;4.342;2023-10-13T13:55:21;12.73;;;5.57;;
17347;SDS011;8791;50.876;4.342;2023-10-13T13:57:48;16.63;;;5.85;;
17347;SDS011;8791;50.876;4.342;2023-10-13T14:00:16;18.15;;;5.82;;
17347;SDS011;8791;50.876;4.342;2023-10-13T14:02:49;12.05;;;5.82;;
17347;SDS011;8791;50.876;4.342;2023-10-13T14:05:17;16.58;;;5.68;;
17347;SDS011;8791;50.876;4.342;2023-10-13T14:07:44;18.75;;;5.47;;
17347;SDS011;8791;50.876;4.342;2023-10-13T14:10:14;19.17;;;5.82;;
17347;SDS011;8791;50.876;4.342;2023-10-13T14:12:57;13.27;;;6.00;;
17347;SDS011;8791;50.876;4.342;2023-10-13T14:15:32;10.88;;;5.40;;
17347;SDS011;8791;50.876;4.342;2023-10-13T14:18:06;13.52;;;5.63;;
17347;SDS011;8791;50.876;4.342;2023-10-13T14:20:39;19.92;;;5.55;;
17347;SDS011;8791;50.876;4.342;2023-10-13T14:23:07;17.00;;;5.45;;
17347;SDS011;8791;50.876;4.342;2023-10-13T14:25:37;18.55;;;5.60;;
17347;SDS011;8791;50.876;4.342;2023-10-13T14:28:09;20.90;;;6.78;;
17347;SDS011;8791;50.876;4.342;2023-10-13T14:30:40;13.52;;;5.30;;
17347;SDS011;8791;50.876;4.342;2023-10-13T14:33:08;11.00;;;5.38;;
17347;SDS011;8791;50.876;4.342;2023-10-13T14:35:36;17.25;;;5.65;;
17347;SDS011;8791;50.876;4.342;2023-10-13T14:38:03;17.05;;;6.40;;
17347;SDS011;8791;50.876;4.342;2023-10-13T14:40:32;18.05;;;5.80;;
17347;SDS011;8791;50.876;4.342;2023-10-13T14:42:59;14.43;;;6.20;;
17347;SDS011;8791;50.876;4.342;2023-10-13T14:45:25;17.33;;;6.10;;
17347;SDS011;8791;50.876;4.342;2023-10-13T14:47:53;16.25;;;5.55;;
17347;SDS011;8791;50.876;4.342;2023-10-13T14:50:21;12.20;;;5.80;;
17347;SDS011;8791;50.876;4.342;2023-10-13T14:52:49;11.20;;;5.85;;
17347;SDS011;8791;50.876;4.342;2023-10-13T14:55:16;16.52;;;6.47;;
17347;SDS011;8791;50.876;4.342;2023-10-13T14:57:58;10.93;;;5.72;;
17347;SDS011;8791;50.876;4.342;2023-10-13T15:00:29;12.23;;;5.53;;
17347;SDS011;8791;50.876;4.342;2023-10-13T15:02:57;14.18;;;5.90;;
17347;SDS011;8791;50.876;4.342;2023-10-13T15:05:28;19.83;;;6.07;;
17347;SDS011;8791;50.876;4.342;2023-10-13T15:07:56;15.95;;;6.13;;
17347;SDS011;8791;50.876;4.342;2023-10-13T15:10:23;19.98;;;6.60;;
17347;SDS011;8791;50.876;4.342;2023-10-13T15:12:52;16.13;;;6.35;;
17347;SDS011;8791;50.876;4.342;2023-10-13T15:15:19;12.45;;;5.70;;
17347;SDS011;8791;50.876;4.342;2023-10-13T15:17:46;15.70;;;5.90;;
17347;SDS011;8791;50.876;4.342;2023-10-13T15:20:13;12.57;;;6.20;;
17347;SDS011;8791;50.876;4.342;2023-10-13T15:22:46;13.35;;;6.30;;
17347;SDS011;8791;50.876;4.342;2023-10-13T15:25:13;10.40;;;5.90;;
17347;SDS011;8791;50.876;4.342;2023-10-13T15:27:53;15.77;;;6.70;;
17347;SDS011;8791;50.876;4.342;2023-10-13T15:30:27;18.83;;;6.15;;